Carnival Victory — 3FFL8 — position and weather

sailwx.info

Track history (hours):
 
Tides and Currents Weather Stations Pressure Air Temp Water Temp Dewpoint Dewpoint Depression Visibility Wind Speed Wind Dir Waves Ship Positions

Carnival Victory

Operator: Carnival Cruise Lines

Last reported at 2016-May-06 08:29 UTC. Time now 2016-May-06 20:39 UTC.
Position N 26°18' W 078°40'.

Type: Ship. MMSI: 355263000.

Date/timePositionNaut miles runAvg speedWind from/ knotsBaromVisibWave heightAir tempDewpointWater temp
2016-May-06 08:29N 26°18' W 078°40'1718.1
2016-May-06 07:33N 26°26' W 078°57'2418.8
2016-May-06 06:18N 26°43' W 079°15'8 0.3
2016-May-05 00:23N 26°37' W 079°22'  
2016-May-01 00:20N 26°38' W 079°22'1514.7
2016-Apr-30 23:19N 26°24' W 079°20'5613.7
2016-Apr-30 19:14N 26°06' W 078°20'1313.4
2016-Apr-30 18:16N 26°02' W 078°07'2613.5
2016-Apr-30 16:20N 25°52' W 077°40'27 4.4
2016-Apr-30 10:15N 25°34' W 077°18'163 5.4
2016-Apr-29 04:05N 27°16' W 079°40'  
Track history (hours):
 
Tides and Currents Weather Stations Pressure Air Temp Water Temp Dewpoint Dewpoint Depression Visibility Wind Speed Wind Dir Waves Ship Positions

Carnival Victory

Operator: Carnival Cruise Lines

Last reported at 2016-May-06 08:29 UTC. Time now 2016-May-06 20:39 UTC.
Position N 26°18' W 078°40'.

Type: Ship. MMSI: 355263000.

Date/timePositionNaut miles runAvg speedWind from/ knotsBaromVisibWave heightAir tempDewpointWater temp
2016-May-06 08:29N 26°18' W 078°40'1718.1
2016-May-06 07:33N 26°26' W 078°57'2418.8
2016-May-06 06:18N 26°43' W 079°15'8 0.3
2016-May-05 00:23N 26°37' W 079°22'  
2016-May-01 00:20N 26°38' W 079°22'1514.7
2016-Apr-30 23:19N 26°24' W 079°20'5613.7
2016-Apr-30 19:14N 26°06' W 078°20'1313.4
2016-Apr-30 18:16N 26°02' W 078°07'2613.5
2016-Apr-30 16:20N 25°52' W 077°40'27 4.4
2016-Apr-30 10:15N 25°34' W 077°18'163 5.4
2016-Apr-29 04:05N 27°16' W 079°40'  

Dump ship's entire track history